Time;durP1;ratioP1;P1;durP2;ratioP2;P2;SDS_P1;SDS_P2;PMS_P1;PMS_P2;Temp;Humidity;BMP_temperature;BMP_pressure;BME280_temperature;BME280_humidity;BME280_pressure;Samples;Min_cycle;Max_cycle;Signal;HPM_P1;HPM_P2
2022/05/07 00:00:12;;;;;;;;;;;;;;;10.60;100.00;96396.84;1034409;28;19921;-71
2022/05/07 00:00:42;;;;;;;;;;;;;;;10.59;100.00;96396.03;1030939;28;20016;-71
2022/05/07 00:01:12;;;;;;;;;;;;;;;10.59;100.00;96393.41;1027268;28;19922;-71
2022/05/07 00:01:43;;;;;;;;;;;;;;;10.59;100.00;96398.66;1030814;28;19910;-71
2022/05/07 00:02:13;;;;;;;;;;;;;;;10.58;100.00;96396.28;1034806;28;20477;-71
2022/05/07 00:02:44;;;;;;;;;;;;;;;10.58;100.00;96396.28;1035018;28;19925;-71
2022/05/07 00:03:14;;;;;;;;;;;;;;;10.58;100.00;96396.28;1037926;28;19921;-71
2022/05/07 00:03:44;;;;;;;;;;;;;;;10.57;100.00;96392.06;1034886;28;19917;-71
2022/05/07 00:04:14;;;;;;;;;;;;;;;10.57;100.00;96392.88;1026647;28;19922;-70
2022/05/07 00:04:45;;;;;;;;;;;;;;;10.56;100.00;96393.09;1024482;28;20329;-71
2022/05/07 00:05:15;;;;;;;;;;;;;;;10.56;100.00;96393.91;1030696;28;19930;-70
2022/05/07 00:05:45;;;;;;;;;;;;;;;10.57;100.00;96390.25;1026766;28;19970;-71
2022/05/07 00:06:16;;;;;;;;;;;;;;;10.57;100.00;96394.69;1030504;28;20599;-71
2022/05/07 00:06:46;;;;;;;;;;;;;;;10.57;100.00;96390.25;1030813;28;19918;-72
2022/05/07 00:07:16;;;;;;;;;;;;;;;10.57;100.00;96395.50;1030887;28;20379;-71
2022/05/07 00:07:47;;;;;;;;;;;;;;;10.42;100.00;96371.69;1034755;28;19925;-71
2022/05/07 00:08:17;;;;;;;;;;;;;;;10.56;100.00;96391.28;1033289;28;19921;-71
2022/05/07 00:08:47;;;;;;;;;;;;;;;10.57;100.00;96387.63;1034899;28;20342;-71
2022/05/07 00:09:18;;;;;;;;;;;;;;;10.55;100.00;96392.31;1034755;28;19921;-70
2022/05/07 00:09:48;;;;;;;;;;;;;;;10.55;100.00;96394.94;1034179;28;19924;-71
2022/05/07 00:10:19;;;;;;;;;;;;;;;10.53;100.00;96394.41;1030685;28;19918;-71
2022/05/07 00:10:49;;;;;;;;;;;;;;;10.54;100.00;96390.72;1030735;28;19925;-71
2022/05/07 00:11:20;;;;;;;;;;;;;;;10.54;100.00;96388.09;1030809;28;19939;-71
2022/05/07 00:11:50;;;;;;;;;;;;;;;10.54;100.00;96395.97;1035184;28;20489;-72
2022/05/07 00:12:21;;;;;;;;;;;;;;;10.53;100.00;96389.16;1042879;28;19913;-70
2022/05/07 00:12:51;;;;;;;;;;;;;;;10.53;100.00;96388.34;1043013;28;19913;-70
2022/05/07 00:13:21;;;;;;;;;;;;;;;10.54;100.00;96385.47;1042758;28;19920;-70
2022/05/07 00:13:52;;;;;;;;;;;;;;;10.55;100.00;96388.91;1043070;28;19948;-70
2022/05/07 00:14:22;;;;;;;;;;;;;;;10.54;100.00;96385.47;1034813;28;19937;-70
2022/05/07 00:14:52;;;;;;;;;;;;;;;10.55;100.00;96387.06;1038818;28;20362;-71
2022/05/07 00:15:23;;;;;;;;;;;;;;;10.55;100.00;96386.28;1030669;28;19965;-70
2022/05/07 00:18:24;;;;;;;;;;;;;;;10.54;100.00;96382.84;1034631;28;19968;-71
2022/05/07 00:18:55;;;;;;;;;;;;;;;10.55;100.00;96378.41;1035614;28;19916;-71
2022/05/07 00:19:25;;;;;;;;;;;;;;;10.53;100.00;96377.84;1037030;28;20441;-71
2022/05/07 00:19:55;;;;;;;;;;;;;;;10.53;100.00;96378.66;1032556;28;19920;-71
2022/05/07 00:20:29;;;;;;;;;;;;;;;10.53;100.00;96381.28;1034830;28;19995;-71
2022/05/07 00:20:59;;;;;;;;;;;;;;;10.53;100.00;96381.28;1031022;28;19910;-70
2022/05/07 00:21:29;;;;;;;;;;;;;;;10.52;100.00;96373.63;1030789;28;19973;-71
2022/05/07 00:22:02;;;;;;;;;;;;;;;10.51;100.00;96377.31;1026402;28;19918;-73
2022/05/07 00:22:33;;;;;;;;;;;;;;;10.50;100.00;96373.13;1027270;28;20363;-71
2022/05/07 00:23:03;;;;;;;;;;;;;;;10.51;100.00;96370.22;1026625;28;19918;-71
2022/05/07 00:23:33;;;;;;;;;;;;;;;10.49;100.00;96361.81;1019397;28;20009;-71
2022/05/07 00:24:04;;;;;;;;;;;;;;;10.50;100.00;96367.88;1026727;28;20522;-70
2022/05/07 00:24:34;;;;;;;;;;;;;;;10.49;100.00;96368.88;1026781;28;19914;-71
2022/05/07 00:25:05;;;;;;;;;;;;;;;10.47;100.00;96366.53;1031510;28;19914;-71
2022/05/07 00:25:35;;;;;;;;;;;;;;;10.48;100.00;96368.09;1039078;28;19924;-71
2022/05/07 00:26:05;;;;;;;;;;;;;;;10.48;100.00;96364.69;1034742;28;20390;-71
2022/05/07 00:26:35;;;;;;;;;;;;;;;10.48;100.00;96362.06;1035049;28;19914;-71
2022/05/07 00:27:06;;;;;;;;;;;;;;;10.47;100.00;96366.53;1026544;28;20077;-71
2022/05/07 00:27:36;;;;;;;;;;;;;;;10.46;100.00;96364.94;1030840;28;19909;-71
2022/05/07 00:28:07;;;;;;;;;;;;;;;10.47;100.00;96363.09;1030608;28;20020;-71
2022/05/07 00:28:37;;;;;;;;;;;;;;;10.46;100.00;96361.50;1030693;28;19918;-71
2022/05/07 00:29:07;;;;;;;;;;;;;;;10.44;100.00;96361.75;1022468;28;20360;-71
2022/05/07 00:29:38;;;;;;;;;;;;;;;10.45;100.00;96359.94;1022349;29;19914;-69
2022/05/07 00:30:08;;;;;;;;;;;;;;;10.44;100.00;96364.38;1022861;28;19925;-70
2022/05/07 00:30:39;;;;;;;;;;;;;;;10.44;100.00;96366.22;1021362;28;20033;-71
2022/05/07 00:31:12;;;;;;;;;;;;;;;10.42;100.00;96361.19;1022567;28;19944;-71
2022/05/07 00:31:42;;;;;;;;;;;;;;;10.41;100.00;96361.47;1027550;28;20544;-70
2022/05/07 00:32:17;;;;;;;;;;;;;;;10.43;100.00;96368.06;1031692;28;19957;-71
2022/05/07 00:32:50;;;;;;;;;;;;;;;10.41;100.00;96358.84;1031547;28;19960;-71
2022/05/07 00:33:20;;;;;;;;;;;;;;;10.40;100.00;96362.50;1026501;28;19918;-70
2022/05/07 00:33:50;;;;;;;;;;;;;;;10.40;100.00;96365.91;1029870;28;19922;-72
2022/05/07 00:34:24;;;;;;;;;;;;;;;10.40;100.00;96363.28;1031010;28;19918;-70
2022/05/07 00:34:54;;;;;;;;;;;;;;;10.39;100.00;96361.69;1034489;28;19921;-71
2022/05/07 00:35:25;;;;;;;;;;;;;;;10.37;100.00;96358.53;1032639;28;19922;-71
2022/05/07 00:35:55;;;;;;;;;;;;;;;10.37;100.00;96359.31;1035322;28;19914;-70
2022/05/07 00:36:25;;;;;;;;;;;;;;;10.36;100.00;96352.50;1038686;28;19939;-71
2022/05/07 00:36:56;;;;;;;;;;;;;;;10.36;100.00;96356.94;1035251;28;19996;-70
2022/05/07 00:37:26;;;;;;;;;;;;;;;10.35;100.00;96355.34;1038667;28;19947;-71
2022/05/07 00:37:56;;;;;;;;;;;;;;;10.36;100.00;96359.56;1034837;28;19941;-71
2022/05/07 00:38:26;;;;;;;;;;;;;;;10.34;100.00;96357.19;1034616;28;19914;-71
2022/05/07 00:38:58;;;;;;;;;;;;;;;10.34;100.00;96356.41;1038270;28;19917;-71
2022/05/07 00:39:31;;;;;;;;;;;;;;;10.33;100.00;96360.06;1035951;28;20031;-71
2022/05/07 00:40:02;;;;;;;;;;;;;;;10.32;100.00;96353.22;1038288;28;19917;-70
2022/05/07 00:40:32;;;;;;;;;;;;;;;10.30;100.00;96353.47;1034624;28;19945;-71
2022/05/07 00:41:03;;;;;;;;;;;;;;;10.30;100.00;96357.94;1034765;28;20016;-71
2022/05/07 00:41:33;;;;;;;;;;;;;;;10.30;100.00;96353.47;1034670;28;19928;-72
2022/05/07 00:42:04;;;;;;;;;;;;;;;10.30;100.00;96352.69;1034699;28;19910;-70
2022/05/07 00:42:34;;;;;;;;;;;;;;;10.29;100.00;96359.75;1030630;28;19918;-70
2022/05/07 00:43:05;;;;;;;;;;;;;;;10.29;100.00;96361.56;1030750;28;20377;-71
2022/05/07 00:43:35;;;;;;;;;;;;;;;10.28;100.00;96365.25;1026532;28;19952;-71
2022/05/07 00:44:05;;;;;;;;;;;;;;;10.28;100.00;96357.38;1026512;28;20030;-70
2022/05/07 00:44:36;;;;;;;;;;;;;;;10.27;100.00;96355.78;1026592;28;19922;-71
2022/05/07 00:45:07;;;;;;;;;;;;;;;10.26;100.00;96357.63;1026652;28;19954;-71
2022/05/07 00:45:37;;;;;;;;;;;;;;;10.26;100.00;96359.44;1030559;28;19918;-70
2022/05/07 00:46:08;;;;;;;;;;;;;;;10.24;100.00;96351.78;1038970;28;19917;-72
2022/05/07 00:46:38;;;;;;;;;;;;;;;10.24;100.00;96358.88;1039112;28;19917;-71
2022/05/07 00:47:11;;;;;;;;;;;;;;;10.23;100.00;96346.78;1034647;28;20294;-71
2022/05/07 00:47:41;;;;;;;;;;;;;;;10.23;100.00;96349.41;1034809;28;19960;-70
2022/05/07 00:48:12;;;;;;;;;;;;;;;10.23;100.00;96354.66;1035449;28;19918;-71
2022/05/07 00:48:46;;;;;;;;;;;;;;;10.22;100.00;96360.94;1039118;28;19917;-71
2022/05/07 00:49:16;;;;;;;;;;;;;;;10.21;100.00;96354.91;1034872;28;20418;-72
2022/05/07 00:49:47;;;;;;;;;;;;;;;10.20;100.00;96355.16;1030787;28;19918;-71
2022/05/07 00:52:14;;;;;;;;;;;;;;;10.20;100.00;96352.53;1024994;28;20443;-71
2022/05/07 00:52:45;;;;;;;;;;;;;;;10.19;100.00;96353.56;1014736;29;19919;-72
2022/05/07 00:53:15;;;;;;;;;;;;;;;10.19;100.00;96349.09;1010671;29;19926;-71
2022/05/07 00:53:46;;;;;;;;;;;;;;;10.19;100.00;96350.94;1010707;29;19923;-71
2022/05/07 00:54:17;;;;;;;;;;;;;;;10.17;100.00;96350.41;1017557;29;19919;-71
2022/05/07 00:54:47;;;;;;;;;;;;;;;10.17;100.00;96351.19;1018555;29;20383;-72
2022/05/07 00:55:20;;;;;;;;;;;;;;;10.17;100.00;96353.03;1018518;29;19923;-71
2022/05/07 00:55:51;;;;;;;;;;;;;;;10.16;100.00;96349.63;1014480;29;19919;-71
2022/05/07 00:56:23;;;;;;;;;;;;;;;10.14;100.00;96355.09;1018233;29;19962;-70
2022/05/07 00:56:53;;;;;;;;;;;;;;;10.15;100.00;96351.41;1019298;29;19919;-71
2022/05/07 00:57:23;;;;;;;;;;;;;;;10.14;100.00;96356.94;1026097;28;19926;-72
2022/05/07 00:57:54;;;;;;;;;;;;;;;10.14;100.00;96356.94;1022434;28;19979;-71
2022/05/07 00:58:24;;;;;;;;;;;;;;;10.13;100.00;96348.28;1030271;28;19922;-71
2022/05/07 00:58:55;;;;;;;;;;;;;;;10.13;100.00;96353.50;1026621;28;20706;-71
2022/05/07 00:59:25;;;;;;;;;;;;;;;10.13;100.00;96356.13;1030860;28;19922;-71
2022/05/07 00:59:56;;;;;;;;;;;;;;;10.12;100.00;96351.91;1025908;28;19929;-70
2022/05/07 01:00:26;;;;;;;;;;;;;;;10.11;100.00;96355.56;1030369;28;19929;-71
2022/05/07 01:00:59;;;;;;;;;;;;;;;10.11;100.00;96347.72;1030922;28;19914;-71
2022/05/07 01:01:29;;;;;;;;;;;;;;;10.11;100.00;96349.53;1027192;28;19965;-71
2022/05/07 01:02:00;;;;;;;;;;;;;;;10.10;100.00;96348.75;1035082;28;19924;-73
2022/05/07 01:02:30;;;;;;;;;;;;;;;10.10;100.00;96348.75;1034732;28;20766;-71
2022/05/07 01:03:00;;;;;;;;;;;;;;;10.09;100.00;96347.19;1030524;28;20000;-71
2022/05/07 01:03:31;;;;;;;;;;;;;;;10.09;100.00;96352.41;1026873;28;19988;-72
2022/05/07 01:04:01;;;;;;;;;;;;;;;10.10;100.00;96359.25;1026773;28;19921;-70
2022/05/07 01:04:31;;;;;;;;;;;;;;;10.10;100.00;96350.59;1026638;28;19918;-71
2022/05/07 01:05:05;;;;;;;;;;;;;;;10.10;100.00;96354.00;1026675;28;19921;-70
2022/05/07 01:05:35;;;;;;;;;;;;;;;10.09;100.00;96355.03;1034793;28;20426;-71
2022/05/07 01:06:06;;;;;;;;;;;;;;;10.10;100.00;96353.22;1031135;28;19922;-71
2022/05/07 01:06:36;;;;;;;;;;;;;;;10.09;100.00;96351.59;1032907;28;19928;-71
2022/05/07 01:07:06;;;;;;;;;;;;;;;10.10;100.00;96358.44;1026532;28;19969;-72
2022/05/07 01:07:37;;;;;;;;;;;;;;;10.08;100.00;96353.44;1026916;28;19957;-72
2022/05/07 01:08:11;;;;;;;;;;;;;;;10.08;100.00;96353.44;1030560;28;20575;-71
2022/05/07 01:08:41;;;;;;;;;;;;;;;10.09;100.00;96356.84;1030862;28;19929;-71
2022/05/07 01:09:11;;;;;;;;;;;;;;;10.08;100.00;96356.06;1026666;28;20287;-71
2022/05/07 01:09:42;;;;;;;;;;;;;;;10.08;100.00;96350.81;1026337;28;19914;-71
2022/05/07 01:10:12;;;;;;;;;;;;;;;10.06;100.00;96350.28;1022493;29;19918;-71
2022/05/07 01:10:43;;;;;;;;;;;;;;;10.06;100.00;96358.16;1022708;28;20375;-70
2022/05/07 01:11:14;;;;;;;;;;;;;;;10.06;100.00;96352.91;1018692;29;19915;-72
2022/05/07 01:11:45;;;;;;;;;;;;;;;10.07;100.00;96348.44;1026694;28;19972;-71
2022/05/07 01:12:15;;;;;;;;;;;;;;;10.06;100.00;96355.53;1030965;28;19941;-71
2022/05/07 01:12:47;;;;;;;;;;;;;;;10.06;100.00;96350.28;1030656;28;20393;-71
2022/05/07 01:13:20;;;;;;;;;;;;;;;9.89;100.00;96329.38;1030036;28;19913;-73
2022/05/07 01:13:50;;;;;;;;;;;;;;;10.07;100.00;96357.09;1027285;28;19902;-71
2022/05/07 01:14:20;;;;;;;;;;;;;;;10.06;100.00;96347.66;1031080;28;19910;-71
2022/05/07 01:14:52;;;;;;;;;;;;;;;10.05;100.00;96346.06;1038934;28;19909;-72
2022/05/07 01:15:23;;;;;;;;;;;;;;;10.06;100.00;96345.03;1038720;28;19914;-71
2022/05/07 01:15:53;;;;;;;;;;;;;;;10.06;100.00;96350.28;1034929;28;20036;-71
2022/05/07 01:16:24;;;;;;;;;;;;;;;10.07;100.00;96345.81;1034219;28;20620;-71
2022/05/07 01:16:54;;;;;;;;;;;;;;;10.05;100.00;96343.44;1034597;28;20471;-72
2022/05/07 01:17:24;;;;;;;;;;;;;;;10.06;100.00;96347.66;1034729;28;20272;-71
2022/05/07 01:17:55;;;;;;;;;;;;;;;10.06;100.00;96347.66;1030715;28;19906;-71
2022/05/07 01:18:25;;;;;;;;;;;;;;;10.08;100.00;96344.78;1030552;28;20603;-72
2022/05/07 01:18:55;;;;;;;;;;;;;;;10.08;100.00;96350.81;1030546;28;20197;-71
2022/05/07 01:19:26;;;;;;;;;;;;;;;10.08;100.00;96347.41;1030567;28;20428;-71
2022/05/07 01:19:56;;;;;;;;;;;;;;;10.08;100.00;96350.81;1034061;28;19935;-71
2022/05/07 01:20:26;;;;;;;;;;;;;;;10.09;100.00;96354.22;1034337;28;19921;-71
2022/05/07 01:20:57;;;;;;;;;;;;;;;10.09;100.00;96341.94;1038804;28;19941;-71
2022/05/07 01:21:28;;;;;;;;;;;;;;;10.10;100.00;96347.97;1038101;28;20646;-71
2022/05/07 01:21:59;;;;;;;;;;;;;;;10.09;100.00;96346.34;1038265;28;19914;-71
2022/05/07 01:22:29;;;;;;;;;;;;;;;10.10;100.00;96354.00;1034556;28;19913;-72
2022/05/07 01:23:00;;;;;;;;;;;;;;;10.10;100.00;96350.59;1027964;28;19914;-72
2022/05/07 01:23:30;;;;;;;;;;;;;;;10.10;100.00;96348.75;1027716;28;19934;-71
2022/05/07 01:24:01;;;;;;;;;;;;;;;10.10;100.00;96353.22;1027810;28;20614;-71
2022/05/07 01:24:31;;;;;;;;;;;;;;;10.10;100.00;96348.75;1027450;28;19963;-71
2022/05/07 01:25:01;;;;;;;;;;;;;;;10.10;100.00;96342.72;1034638;28;19975;-71
2022/05/07 01:25:32;;;;;;;;;;;;;;;10.11;100.00;96346.91;1023192;29;19921;-71
2022/05/07 01:26:03;;;;;;;;;;;;;;;10.11;100.00;96345.09;1022619;28;19921;-71
2022/05/07 01:26:33;;;;;;;;;;;;;;;10.09;100.00;96346.34;1026568;28;20454;-70
2022/05/07 01:27:03;;;;;;;;;;;;;;;10.10;100.00;96342.72;1033269;28;19913;-71
2022/05/07 01:27:33;;;;;;;;;;;;;;;10.10;100.00;96340.88;1034397;28;20008;-71
2022/05/07 01:28:04;;;;;;;;;;;;;;;10.12;100.00;96344.03;1034765;28;19996;-71
2022/05/07 01:28:34;;;;;;;;;;;;;;;10.12;100.00;96344.03;1030528;28;19914;-72
2022/05/07 01:29:06;;;;;;;;;;;;;;;10.15;100.00;96345.38;1030718;28;19913;-71
2022/05/07 01:29:37;;;;;;;;;;;;;;;10.16;100.00;96341.75;1034339;28;19968;-70
2022/05/07 01:30:07;;;;;;;;;;;;;;;10.17;100.00;96347.78;1033481;28;20766;-72
2022/05/07 01:30:38;;;;;;;;;;;;;;;10.17;100.00;96340.69;1033046;28;20623;-71
2022/05/07 01:31:11;;;;;;;;;;;;;;;10.18;100.00;96339.66;1026796;28;19972;-71
2022/05/07 01:31:41;;;;;;;;;;;;;;;10.19;100.00;96335.19;1026281;28;20677;-72
2022/05/07 01:32:11;;;;;;;;;;;;;;;10.17;100.00;96347.78;1030165;28;20010;-72
2022/05/07 01:32:42;;;;;;;;;;;;;;;10.18;100.00;96344.91;1026910;28;19974;-71
2022/05/07 01:33:12;;;;;;;;;;;;;;;10.19;100.00;96343.06;1030676;28;19925;-71
2022/05/07 01:33:43;;;;;;;;;;;;;;;10.20;100.00;96344.69;1030498;28;19917;-70
2022/05/07 01:34:13;;;;;;;;;;;;;;;10.20;100.00;96342.84;1026757;28;20234;-71
2022/05/07 01:34:43;;;;;;;;;;;;;;;10.21;100.00;96341.78;1030730;28;19917;-73
2022/05/07 01:35:14;;;;;;;;;;;;;;;10.22;100.00;96345.22;1026793;28;19914;-71
2022/05/07 01:35:44;;;;;;;;;;;;;;;10.22;100.00;96340.75;1030548;28;20008;-71
2022/05/07 01:36:18;;;;;;;;;;;;;;;10.24;100.00;96348.38;1026989;28;19957;-71
2022/05/07 01:36:48;;;;;;;;;;;;;;;10.23;100.00;96342.34;1027055;28;19914;-71
2022/05/07 01:37:18;;;;;;;;;;;;;;;10.23;100.00;96347.59;1031005;28;19918;-71
2022/05/07 01:37:48;;;;;;;;;;;;;;;10.23;100.00;96344.97;1031540;28;20279;-71
2022/05/07 01:38:19;;;;;;;;;;;;;;;10.24;100.00;96343.94;1038952;28;20452;-71
2022/05/07 01:38:49;;;;;;;;;;;;;;;10.25;100.00;96339.47;1038658;28;19924;-71
2022/05/07 01:39:20;;;;;;;;;;;;;;;10.26;100.00;96341.91;1034899;28;19981;-72
2022/05/07 01:39:50;;;;;;;;;;;;;;;10.25;100.00;96344.72;1033799;28;20036;-71
2022/05/07 01:40:20;;;;;;;;;;;;;;;10.27;100.00;96340.06;1034553;28;20375;-71
2022/05/07 01:40:50;;;;;;;;;;;;;;;10.25;100.00;96335.00;1030662;28;19914;-71
2022/05/07 01:41:21;;;;;;;;;;;;;;;10.24;100.00;96340.53;1022519;29;19987;-71
2022/05/07 01:41:51;;;;;;;;;;;;;;;10.26;100.00;96338.47;1022543;29;19918;-71
2022/05/07 01:42:21;;;;;;;;;;;;;;;10.26;100.00;96341.06;1022454;29;19919;-70
2022/05/07 01:42:52;;;;;;;;;;;;;;;10.25;100.00;96347.34;1022632;28;19915;-71
2022/05/07 01:43:22;;;;;;;;;;;;;;;10.24;100.00;96351.00;1030690;28;19953;-71
2022/05/07 01:43:53;;;;;;;;;;;;;;;10.25;100.00;96344.72;1038325;28;20397;-69
2022/05/07 01:44:24;;;;;;;;;;;;;;;10.25;100.00;96345.50;1026482;28;19925;-72
2022/05/07 01:44:54;;;;;;;;;;;;;;;10.24;100.00;96345.75;1022704;29;19921;-71
2022/05/07 01:45:24;;;;;;;;;;;;;;;10.25;100.00;96347.34;1022549;28;19982;-71
2022/05/07 01:45:55;;;;;;;;;;;;;;;10.24;100.00;96343.13;1026742;28;19985;-71
2022/05/07 01:48:09;;;;;;;;;;;;;;;10.27;100.00;96347.94;1038682;28;20820;-71
2022/05/07 01:48:39;;;;;;;;;;;;;;;10.09;100.00;96320.13;1038239;28;20383;-72
2022/05/07 01:49:10;;;;;;;;;;;;;;;10.27;100.00;96347.94;1029143;28;19969;-70
2022/05/07 01:49:40;;;;;;;;;;;;;;;10.28;100.00;96346.88;1033033;28;19988;-72
2022/05/07 01:50:11;;;;;;;;;;;;;;;10.26;100.00;96349.75;1035244;28;19977;-71
2022/05/07 01:50:41;;;;;;;;;;;;;;;10.28;100.00;96349.50;1031201;28;19914;-70
2022/05/07 01:51:12;;;;;;;;;;;;;;;10.27;100.00;96353.19;1039433;28;20351;-72
2022/05/07 01:51:45;;;;;;;;;;;;;;;10.29;100.00;96345.84;1039337;28;20650;-71
2022/05/07 01:52:15;;;;;;;;;;;;;;;10.29;100.00;96346.63;1035416;28;19913;-72
2022/05/07 01:52:45;;;;;;;;;;;;;;;10.30;100.00;96352.69;1031105;28;19980;-71
2022/05/07 01:53:15;;;;;;;;;;;;;;;10.29;100.00;96346.63;1031294;28;19918;-72
2022/05/07 01:53:46;;;;;;;;;;;;;;;10.28;100.00;96347.66;1031263;28;20446;-71
2022/05/07 01:54:16;;;;;;;;;;;;;;;10.29;100.00;96351.09;1035085;28;19918;-71
2022/05/07 01:54:47;;;;;;;;;;;;;;;10.30;100.00;96352.69;1039706;28;19909;-71
2022/05/07 01:55:17;;;;;;;;;;;;;;;10.29;100.00;96340.59;1036142;28;19925;-71
2022/05/07 01:55:47;;;;;;;;;;;;;;;10.28;100.00;96345.06;1034787;28;19913;-71
2022/05/07 01:56:17;;;;;;;;;;;;;;;10.30;100.00;96344.81;1030859;28;20708;-71
2022/05/07 01:56:48;;;;;;;;;;;;;;;10.29;100.00;96344.00;1035976;28;19940;-71
2022/05/07 01:57:18;;;;;;;;;;;;;;;10.29;100.00;96341.38;1035976;28;19943;-72
2022/05/07 01:57:48;;;;;;;;;;;;;;;10.30;100.00;96344.81;1027692;28;19972;-71
2022/05/07 01:58:19;;;;;;;;;;;;;;;10.31;100.00;96349.03;1031844;28;20555;-71
2022/05/07 01:58:49;;;;;;;;;;;;;;;10.28;100.00;96350.28;1035660;28;19914;-71
2022/05/07 01:59:19;;;;;;;;;;;;;;;10.28;100.00;96342.44;1031732;28;19921;-71
2022/05/07 01:59:50;;;;;;;;;;;;;;;10.27;100.00;96346.09;1035122;28;20391;-71
2022/05/07 02:00:20;;;;;;;;;;;;;;;10.27;100.00;96340.06;1031591;28;19909;-71
2022/05/07 02:00:51;;;;;;;;;;;;;;;10.28;100.00;96345.06;1027742;28;19925;-72
2022/05/07 02:01:21;;;;;;;;;;;;;;;10.26;100.00;96343.69;1035438;28;19921;-70
2022/05/07 02:01:52;;;;;;;;;;;;;;;10.27;100.00;96347.94;1035941;28;20379;-71
2022/05/07 02:02:22;;;;;;;;;;;;;;;10.26;100.00;96343.69;1039871;28;19994;-70
2022/05/07 02:02:52;;;;;;;;;;;;;;;10.25;100.00;96347.34;1035616;28;20434;-71
2022/05/07 02:03:23;;;;;;;;;;;;;;;10.24;100.00;96343.13;1035747;28;19914;-71
2022/05/07 02:03:53;;;;;;;;;;;;;;;10.23;100.00;96337.09;1035997;28;20027;-71
2022/05/07 02:04:24;;;;;;;;;;;;;;;10.24;100.00;96343.13;1035832;28;19917;-71
2022/05/07 02:04:54;;;;;;;;;;;;;;;10.22;100.00;96343.38;1036076;28;19922;-71
2022/05/07 02:05:25;;;;;;;;;;;;;;;10.26;100.00;96338.47;1040094;28;19921;-72
2022/05/07 02:05:55;;;;;;;;;;;;;;;10.26;100.00;96346.31;1040274;28;19920;-71
2022/05/07 02:06:26;;;;;;;;;;;;;;;10.26;100.00;96346.31;1041460;28;19956;-71
2022/05/07 02:06:56;;;;;;;;;;;;;;;10.25;100.00;96350.75;1040016;28;19921;-70
2022/05/07 02:07:26;;;;;;;;;;;;;;;10.23;100.00;96346.78;1040006;28;19917;-70
2022/05/07 02:07:58;;;;;;;;;;;;;;;10.24;100.00;96348.38;1036071;28;19913;-71
2022/05/07 02:08:28;;;;;;;;;;;;;;;10.22;100.00;96340.75;1032018;28;19961;-71
2022/05/07 02:08:58;;;;;;;;;;;;;;;10.21;100.00;96343.63;1035981;28;19921;-71
2022/05/07 02:09:29;;;;;;;;;;;;;;;10.21;100.00;96354.13;1036018;28;19914;-72
2022/05/07 02:09:59;;;;;;;;;;;;;;;10.18;100.00;96342.28;1035275;28;20871;-72
2022/05/07 02:10:29;;;;;;;;;;;;;;;10.19;100.00;96345.69;1035927;28;19917;-71
2022/05/07 02:11:01;;;;;;;;;;;;;;;10.19;100.00;96345.69;1027797;28;19918;-73
2022/05/07 02:11:31;;;;;;;;;;;;;;;10.17;100.00;96342.53;1032032;28;19941;-70
2022/05/07 02:12:02;;;;;;;;;;;;;;;10.17;100.00;96350.41;1036015;28;19928;-71
2022/05/07 02:12:33;;;;;;;;;;;;;;;10.18;100.00;96344.13;1032456;28;19980;-72
2022/05/07 02:13:03;;;;;;;;;;;;;;;10.17;100.00;96345.16;1035803;28;19922;-71
2022/05/07 02:13:33;;;;;;;;;;;;;;;10.17;100.00;96342.53;1036096;28;20511;-71
2022/05/07 02:14:04;;;;;;;;;;;;;;;10.15;100.00;96348.81;1036092;28;19992;-71
2022/05/07 02:14:37;;;;;;;;;;;;;;;10.16;100.00;96347.00;1036186;28;20437;-71
2022/05/07 02:15:07;;;;;;;;;;;;;;;10.15;100.00;96346.19;1038405;28;20016;-71
2022/05/07 02:15:38;;;;;;;;;;;;;;;10.14;100.00;96347.22;1036596;28;19917;-71
2022/05/07 02:16:08;;;;;;;;;;;;;;;10.14;100.00;96346.44;1044134;28;19916;-71
2022/05/07 02:16:38;;;;;;;;;;;;;;;10.13;100.00;96343.03;1040009;28;19921;-71
2022/05/07 02:17:09;;;;;;;;;;;;;;;10.13;100.00;96337.00;1040157;28;19921;-70
2022/05/07 02:17:39;;;;;;;;;;;;;;;10.13;100.00;96337.78;1040160;28;19928;-71
2022/05/07 02:18:10;;;;;;;;;;;;;;;10.13;100.00;96342.22;1040122;28;19916;-70
2022/05/07 02:18:40;;;;;;;;;;;;;;;10.14;100.00;96338.56;1040182;28;19924;-70
2022/05/07 02:19:10;;;;;;;;;;;;;;;9.97;100.00;96315.03;1036098;28;19926;-71
2022/05/07 02:19:41;;;;;;;;;;;;;;;10.13;100.00;96345.66;1031175;28;19968;-71
2022/05/07 02:20:11;;;;;;;;;;;;;;;10.12;100.00;96338.78;1030481;28;19922;-70
2022/05/07 02:20:41;;;;;;;;;;;;;;;10.13;100.00;96342.22;1032021;28;19964;-70
2022/05/07 02:21:11;;;;;;;;;;;;;;;10.14;100.00;96335.94;1036163;28;19914;-71
2022/05/07 02:21:42;;;;;;;;;;;;;;;10.14;100.00;96338.56;1035743;28;19964;-70
2022/05/07 02:22:12;;;;;;;;;;;;;;;10.13;100.00;96337.78;1032080;28;19913;-71
2022/05/07 02:22:44;;;;;;;;;;;;;;;10.14;100.00;96335.94;1032040;28;19936;-70
2022/05/07 02:23:17;;;;;;;;;;;;;;;10.12;100.00;96336.19;1032175;28;20014;-71
2022/05/07 02:23:47;;;;;;;;;;;;;;;10.12;100.00;96343.25;1036513;28;19987;-71
2022/05/07 02:24:17;;;;;;;;;;;;;;;10.11;100.00;96337.22;1032240;28;19969;-71
2022/05/07 02:24:47;;;;;;;;;;;;;;;10.12;100.00;96333.56;1016127;29;19925;-71
2022/05/07 02:25:18;;;;;;;;;;;;;;;10.13;100.00;96344.84;1019128;29;19962;-71
2022/05/07 02:25:48;;;;;;;;;;;;;;;10.12;100.00;96340.63;1024235;28;20417;-71
2022/05/07 02:26:19;;;;;;;;;;;;;;;10.12;100.00;96332.75;1032520;28;19964;-71
2022/05/07 02:26:49;;;;;;;;;;;;;;;10.11;100.00;96333.81;1044499;28;19917;-71
2022/05/07 02:27:19;;;;;;;;;;;;;;;10.10;100.00;96335.66;1040315;28;19917;-71
2022/05/07 02:27:50;;;;;;;;;;;;;;;10.10;100.00;96343.50;1035868;28;19947;-71
2022/05/07 02:28:20;;;;;;;;;;;;;;;10.09;100.00;96328.81;1032074;28;19953;-70
2022/05/07 02:28:50;;;;;;;;;;;;;;;10.08;100.00;96340.31;1027899;28;20408;-70
2022/05/07 02:29:22;;;;;;;;;;;;;;;10.08;100.00;96340.31;1031851;28;19929;-70
2022/05/07 02:29:52;;;;;;;;;;;;;;;10.09;100.00;96335.88;1031381;28;19922;-71
2022/05/07 02:30:22;;;;;;;;;;;;;;;10.07;100.00;96336.13;1034406;28;19929;-71
2022/05/07 02:30:53;;;;;;;;;;;;;;;10.07;100.00;96336.13;1036133;28;20382;-71
2022/05/07 02:31:23;;;;;;;;;;;;;;;10.06;100.00;96337.19;1035941;28;19992;-71
2022/05/07 02:32:06;;;;;;;;;;;;;;;10.06;100.00;96334.56;1035662;28;20501;-71
2022/05/07 02:32:36;;;;;;;;;;;;;;;10.05;100.00;96335.56;1034346;28;19952;-71
2022/05/07 02:33:06;;;;;;;;;;;;;;;10.05;100.00;96330.31;1032021;28;19910;-72
2022/05/07 02:33:37;;;;;;;;;;;;;;;10.07;100.00;96332.72;1032021;28;19914;-71
2022/05/07 02:34:07;;;;;;;;;;;;;;;10.06;100.00;96337.19;1033441;28;20391;-71
2022/05/07 02:34:37;;;;;;;;;;;;;;;10.07;100.00;96335.34;1035900;28;19917;-71
2022/05/07 02:35:08;;;;;;;;;;;;;;;10.07;100.00;96337.97;1035899;28;19948;-72
2022/05/07 02:35:41;;;;;;;;;;;;;;;10.07;100.00;96337.97;1027658;28;19918;-71
2022/05/07 02:36:11;;;;;;;;;;;;;;;10.07;100.00;96328.25;1028213;28;19918;-71
2022/05/07 02:36:44;;;;;;;;;;;;;;;10.06;100.00;96331.94;1031902;28;19918;-71
2022/05/07 02:37:14;;;;;;;;;;;;;;;10.08;100.00;96332.47;1036542;28;20507;-72
2022/05/07 02:37:45;;;;;;;;;;;;;;;10.10;100.00;96332.22;1044188;28;20409;-71
2022/05/07 02:38:15;;;;;;;;;;;;;;;10.08;100.00;96335.09;1044068;28;20341;-71
2022/05/07 02:38:45;;;;;;;;;;;;;;;10.08;100.00;96324.59;1044335;28;19916;-72
2022/05/07 02:39:16;;;;;;;;;;;;;;;10.09;100.00;96330.63;1044575;28;19916;-72
2022/05/07 02:39:50;;;;;;;;;;;;;;;10.08;100.00;96327.22;1035177;28;20020;-71
2022/05/07 02:40:20;;;;;;;;;;;;;;;10.09;100.00;96325.38;1035489;28;20345;-71
2022/05/07 02:42:33;;;;;;;;;;;;;;;10.11;100.00;96329.34;1043982;28;19929;-71
2022/05/07 02:43:04;;;;;;;;;;;;;;;10.11;100.00;96331.97;1044202;28;19909;-72
2022/05/07 02:43:34;;;;;;;;;;;;;;;10.10;100.00;96332.22;1040026;28;20375;-72
2022/05/07 02:44:06;;;;;;;;;;;;;;;10.09;100.00;96331.44;1035709;28;20366;-71
2022/05/07 02:44:37;;;;;;;;;;;;;;;10.08;100.00;96335.09;1035778;28;20020;-72
2022/05/07 02:45:07;;;;;;;;;;;;;;;10.08;100.00;96331.66;1024141;28;20434;-72